createdAt,value
2022-10-05T00:01:31.129Z,16.00
2022-10-05T00:04:22.902Z,16.48
2022-10-05T00:07:02.791Z,15.00
2022-10-05T00:09:32.846Z,15.18
2022-10-05T00:12:15.632Z,15.65
2022-10-05T00:14:45.440Z,14.13
2022-10-05T00:19:55.421Z,16.38
2022-10-05T00:22:30.075Z,17.25
2022-10-05T00:25:01.880Z,16.38
2022-10-05T00:27:42.382Z,22.90
2022-10-05T00:30:16.654Z,19.83
2022-10-05T00:32:59.366Z,12.57
2022-10-05T00:35:31.048Z,13.40
2022-10-05T00:38:03.239Z,15.60
2022-10-05T00:40:41.956Z,14.57
2022-10-05T00:43:10.709Z,17.08
2022-10-05T00:45:52.240Z,13.45
2022-10-05T00:48:43.437Z,13.80
2022-10-05T00:51:11.953Z,16.35
2022-10-05T00:53:47.600Z,12.00
2022-10-05T00:56:26.352Z,11.45
2022-10-05T00:59:04.329Z,11.77
2022-10-05T01:01:38.055Z,12.65
2022-10-05T01:06:45.810Z,13.73
2022-10-05T01:09:23.180Z,13.55
2022-10-05T01:12:17.176Z,13.75
2022-10-05T01:15:01.805Z,13.90
2022-10-05T01:17:37.003Z,20.90
2022-10-05T01:20:25.299Z,17.20
2022-10-05T01:23:08.714Z,16.67
2022-10-05T01:25:58.651Z,19.27
2022-10-05T01:28:34.273Z,17.70
2022-10-05T01:31:23.369Z,16.27
2022-10-05T01:34:00.495Z,10.82
2022-10-05T01:36:32.931Z,16.70
2022-10-05T01:39:21.009Z,15.15
2022-10-05T01:42:02.107Z,17.90
2022-10-05T01:44:42.367Z,16.33
2022-10-05T01:47:16.455Z,18.02
2022-10-05T01:50:05.105Z,13.00
2022-10-05T01:52:41.083Z,10.57
2022-10-05T01:55:33.167Z,18.20
2022-10-05T01:58:11.139Z,16.85
2022-10-05T02:00:57.197Z,14.75
2022-10-05T02:03:30.166Z,13.02
2022-10-05T02:06:06.272Z,15.18
2022-10-05T02:08:48.505Z,12.45
2022-10-05T02:11:19.662Z,13.80
2022-10-05T02:13:58.128Z,11.48
2022-10-05T02:16:37.379Z,13.30
2022-10-05T02:19:14.750Z,16.65
2022-10-05T02:21:53.674Z,15.73
2022-10-05T02:24:27.925Z,15.38
2022-10-05T02:27:00.861Z,19.27
2022-10-05T02:29:31.599Z,13.45
2022-10-05T02:32:15.066Z,12.70
2022-10-05T02:34:44.177Z,16.05
2022-10-05T02:37:41.900Z,15.05
2022-10-05T02:40:14.789Z,14.57
2022-10-05T02:42:47.409Z,17.48
2022-10-05T02:45:18.054Z,12.80
2022-10-05T02:47:50.079Z,13.27
2022-10-05T02:50:31.920Z,13.40
2022-10-05T02:53:03.477Z,23.00
2022-10-05T02:55:32.620Z,19.35
2022-10-05T02:58:26.593Z,17.15
2022-10-05T03:01:21.576Z,16.75
2022-10-05T03:03:55.939Z,15.15
2022-10-05T03:06:31.681Z,14.55
2022-10-05T03:09:03.897Z,14.00
2022-10-05T03:11:36.792Z,14.57
2022-10-05T03:14:12.290Z,15.95
2022-10-05T03:16:59.188Z,16.35
2022-10-05T03:19:43.335Z,14.73
2022-10-05T03:22:27.110Z,17.13
2022-10-05T03:25:15.548Z,17.50
2022-10-05T03:28:02.774Z,16.63
2022-10-05T03:30:39.412Z,14.75
2022-10-05T03:33:12.172Z,16.83
2022-10-05T03:35:59.974Z,19.25
2022-10-05T03:38:36.380Z,16.67
2022-10-05T03:41:11.916Z,18.77
2022-10-05T03:43:52.970Z,16.30
2022-10-05T03:46:26.141Z,13.60
2022-10-05T03:49:18.226Z,14.63
2022-10-05T03:51:49.298Z,24.83
2022-10-05T03:54:50.888Z,15.68
2022-10-05T03:57:20.276Z,16.23
2022-10-05T04:00:14.948Z,18.35
2022-10-05T04:03:07.867Z,19.08
2022-10-05T04:05:40.600Z,17.08
2022-10-05T04:08:31.139Z,22.00
2022-10-05T04:11:03.308Z,16.15
2022-10-05T04:13:52.637Z,22.98
2022-10-05T04:16:30.323Z,19.25
2022-10-05T04:19:11.693Z,24.05
2022-10-05T04:21:58.948Z,22.23
2022-10-05T04:24:34.356Z,23.75
2022-10-05T04:27:16.979Z,22.42
2022-10-05T04:29:52.372Z,20.13
2022-10-05T04:32:40.363Z,23.20
2022-10-05T04:35:28.521Z,22.60
2022-10-05T04:38:03.928Z,68.18
2022-10-05T04:40:40.338Z,23.20
2022-10-05T04:43:23.187Z,22.38
2022-10-05T04:46:11.175Z,27.65
2022-10-05T04:48:49.037Z,23.92
2022-10-05T04:51:31.754Z,19.40
2022-10-05T04:54:07.854Z,20.20
2022-10-05T04:56:42.352Z,26.98
2022-10-05T04:59:16.318Z,24.90
2022-10-05T05:02:07.647Z,25.40
2022-10-05T05:04:51.966Z,31.20
2022-10-05T05:07:31.788Z,19.38
2022-10-05T05:10:26.267Z,20.30
2022-10-05T05:13:48.581Z,25.42
2022-10-05T05:16:17.147Z,23.85
2022-10-05T05:18:59.980Z,20.42
2022-10-05T05:21:50.175Z,28.25
2022-10-05T05:24:19.357Z,20.98
2022-10-05T05:26:58.299Z,19.00
2022-10-05T05:29:45.811Z,21.02
2022-10-05T05:32:23.391Z,33.47
2022-10-05T05:35:09.404Z,36.13
2022-10-05T05:37:59.372Z,30.38
2022-10-05T05:41:00.188Z,26.08
2022-10-05T05:43:35.520Z,24.45
2022-10-05T05:46:08.588Z,26.65
2022-10-05T05:48:41.843Z,21.38
2022-10-05T05:51:44.967Z,20.85
2022-10-05T05:54:19.166Z,19.88
2022-10-05T05:57:20.562Z,22.05
2022-10-05T06:00:10.440Z,24.60
2022-10-05T06:03:06.975Z,21.02
2022-10-05T06:05:58.844Z,23.52
2022-10-05T06:08:36.105Z,23.58
2022-10-05T06:11:17.995Z,18.58
2022-10-05T06:13:47.726Z,19.98
2022-10-05T06:16:22.613Z,16.98
2022-10-05T06:19:06.389Z,43.13
2022-10-05T06:21:41.386Z,16.45
2022-10-05T06:24:24.212Z,16.15
2022-10-05T06:27:21.524Z,14.85
2022-10-05T06:30:17.317Z,21.17
2022-10-05T06:32:52.055Z,24.75
2022-10-05T06:35:47.473Z,21.17
2022-10-05T06:38:59.214Z,20.80
2022-10-05T06:41:43.695Z,15.32
2022-10-05T06:44:27.087Z,14.27
2022-10-05T06:47:24.928Z,15.80
2022-10-05T06:50:38.222Z,12.77
2022-10-05T06:53:31.422Z,13.75
2022-10-05T06:56:15.781Z,14.65
2022-10-05T06:58:51.138Z,15.20
2022-10-05T07:01:39.662Z,15.25
2022-10-05T07:04:19.849Z,13.90
2022-10-05T07:06:57.493Z,14.90
2022-10-05T07:09:45.972Z,21.30
2022-10-05T07:12:52.530Z,27.55
2022-10-05T07:15:32.769Z,18.83
2022-10-05T07:18:32.316Z,15.25
2022-10-05T07:21:21.524Z,30.52
2022-10-05T07:24:03.030Z,15.35
2022-10-05T07:26:48.522Z,22.02
2022-10-05T07:29:48.869Z,19.58
2022-10-05T07:32:39.941Z,13.90
2022-10-05T07:35:30.211Z,11.70
2022-10-05T07:38:26.897Z,11.60
2022-10-05T07:41:16.340Z,13.38
2022-10-05T07:44:11.666Z,8.18
2022-10-05T07:46:56.417Z,20.38
2022-10-05T07:49:56.570Z,11.75
2022-10-05T07:52:38.128Z,9.38
2022-10-05T07:55:36.276Z,12.07
2022-10-05T07:58:31.844Z,9.85
2022-10-05T08:01:27.924Z,11.77
2022-10-05T08:04:06.068Z,10.55
2022-10-05T08:07:00.208Z,8.70
2022-10-05T08:09:44.925Z,10.32
2022-10-05T08:12:36.211Z,26.67
2022-10-05T08:15:21.769Z,15.32
2022-10-05T08:18:15.481Z,18.83
2022-10-05T08:20:49.832Z,21.05
2022-10-05T08:23:38.829Z,8.23
2022-10-05T08:26:27.944Z,9.68
2022-10-05T08:28:58.700Z,12.27
2022-10-05T08:31:30.747Z,24.02
2022-10-05T08:34:30.461Z,10.13
2022-10-05T08:37:25.097Z,11.77
2022-10-05T08:40:25.098Z,10.60
2022-10-05T08:43:29.566Z,9.23
2022-10-05T08:46:25.147Z,9.77
2022-10-05T08:48:59.296Z,8.82
2022-10-05T08:51:36.799Z,10.30
2022-10-05T08:54:21.545Z,10.27
2022-10-05T08:56:59.227Z,8.00
2022-10-05T09:00:09.171Z,8.35
2022-10-05T09:03:07.137Z,7.82
2022-10-05T09:06:05.837Z,9.77
2022-10-05T09:11:41.786Z,11.95
2022-10-05T09:14:56.418Z,8.32
2022-10-05T09:18:13.669Z,7.70
2022-10-05T09:21:02.997Z,9.07
2022-10-05T09:24:03.763Z,10.13
2022-10-05T09:27:03.108Z,10.27
2022-10-05T09:29:46.718Z,7.75
2022-10-05T09:35:33.202Z,8.80
2022-10-05T09:38:38.036Z,7.63
2022-10-05T09:41:36.959Z,8.68
2022-10-05T09:44:22.802Z,6.60
2022-10-05T09:47:33.569Z,6.18
2022-10-05T09:50:21.022Z,7.85
2022-10-05T09:53:35.223Z,5.18
2022-10-05T09:56:23.049Z,9.80
2022-10-05T09:59:12.544Z,5.82
2022-10-05T10:02:22.026Z,6.32
2022-10-05T10:05:29.997Z,12.70
2022-10-05T10:08:21.225Z,24.17
2022-10-05T10:11:04.695Z,30.63
2022-10-05T10:13:58.896Z,60.47
2022-10-05T10:17:13.462Z,69.50
2022-10-05T10:20:05.778Z,28.85
2022-10-05T10:22:57.665Z,13.55
2022-10-05T10:25:44.720Z,16.55
2022-10-05T10:28:40.942Z,8.57
2022-10-05T10:31:21.846Z,11.27
2022-10-05T10:34:06.349Z,7.75
2022-10-05T10:37:17.161Z,7.22
2022-10-05T10:40:08.216Z,8.73
2022-10-05T10:42:51.544Z,7.65
2022-10-05T10:45:38.793Z,11.48
2022-10-05T10:48:11.283Z,14.45
2022-10-05T10:51:12.627Z,7.53
2022-10-05T10:54:27.878Z,6.63
2022-10-05T10:57:30.106Z,10.00
2022-10-05T11:00:46.754Z,9.10
2022-10-05T11:03:47.443Z,11.48
2022-10-05T11:06:24.842Z,8.63
2022-10-05T11:09:25.172Z,9.57
2022-10-05T11:12:22.177Z,10.23
2022-10-05T11:15:06.868Z,11.82
2022-10-05T11:18:01.553Z,8.98
2022-10-05T11:21:04.161Z,7.68
2022-10-05T11:23:50.851Z,7.00
2022-10-05T11:26:54.365Z,6.50
2022-10-05T11:29:25.852Z,9.15
2022-10-05T11:32:40.520Z,8.88
2022-10-05T11:35:47.590Z,20.05
2022-10-05T11:38:35.502Z,14.82
2022-10-05T11:41:14.372Z,7.78
2022-10-05T11:43:46.634Z,15.27
2022-10-05T11:46:32.353Z,5.75
2022-10-05T11:49:48.255Z,5.07
2022-10-05T11:52:41.895Z,6.93
2022-10-05T11:59:08.856Z,6.53
2022-10-05T12:02:10.905Z,9.23
2022-10-05T12:04:59.018Z,13.38
2022-10-05T12:08:08.510Z,32.25
2022-10-05T12:11:05.214Z,22.02
2022-10-05T12:13:59.140Z,6.57
2022-10-05T12:17:02.839Z,16.25
2022-10-05T12:19:57.765Z,6.78
2022-10-05T12:22:43.292Z,6.03
2022-10-05T12:28:32.985Z,23.92
2022-10-05T12:31:32.215Z,10.85
2022-10-05T12:38:03.484Z,10.18
2022-10-05T12:40:49.538Z,9.95
2022-10-05T12:43:47.092Z,5.07
2022-10-05T12:46:36.524Z,7.95
2022-10-05T12:49:24.161Z,5.85
2022-10-05T12:52:27.813Z,6.05
2022-10-05T12:55:42.453Z,8.35
2022-10-05T12:58:39.208Z,9.65
2022-10-05T13:01:18.869Z,7.00
2022-10-05T13:04:17.549Z,8.25
2022-10-05T13:07:29.417Z,18.38
2022-10-05T13:10:51.740Z,7.63
2022-10-05T13:13:52.945Z,12.60
2022-10-05T13:17:12.895Z,13.32
2022-10-05T13:20:14.253Z,11.73
2022-10-05T13:22:50.180Z,18.67
2022-10-05T13:25:55.492Z,25.33
2022-10-05T13:28:47.062Z,17.77
2022-10-05T13:35:23.418Z,30.42
2022-10-05T13:38:39.060Z,17.02
2022-10-05T13:41:30.276Z,30.40
2022-10-05T13:44:02.512Z,24.92
2022-10-05T13:47:05.254Z,10.88
2022-10-05T13:53:36.924Z,9.43
2022-10-05T13:56:29.207Z,8.10
2022-10-05T13:59:42.780Z,21.83
2022-10-05T14:02:22.377Z,22.23
2022-10-05T14:04:59.657Z,23.90
2022-10-05T14:07:59.689Z,32.72
2022-10-05T14:10:47.115Z,30.10
2022-10-05T14:13:23.228Z,60.65
2022-10-05T14:16:05.026Z,66.47
2022-10-05T14:18:37.884Z,58.90
2022-10-05T14:21:09.045Z,45.08
2022-10-05T14:23:47.340Z,22.55
2022-10-05T14:26:33.542Z,10.75
2022-10-05T14:29:29.028Z,12.30
2022-10-05T14:32:03.385Z,20.58
2022-10-05T14:34:37.463Z,14.25
2022-10-05T14:37:26.406Z,11.07
2022-10-05T14:40:21.911Z,10.95
2022-10-05T14:43:02.637Z,9.80
2022-10-05T14:46:23.261Z,8.85
2022-10-05T14:49:14.839Z,19.95
2022-10-05T14:51:46.921Z,10.43
2022-10-05T14:54:26.719Z,10.38
2022-10-05T14:57:03.509Z,11.93
2022-10-05T14:59:56.022Z,10.98
2022-10-05T15:02:49.974Z,11.15
2022-10-05T15:05:26.119Z,8.40
2022-10-05T15:08:04.285Z,11.68
2022-10-05T15:10:44.075Z,15.63
2022-10-05T15:13:17.099Z,16.63
2022-10-05T15:15:49.848Z,18.30
2022-10-05T15:18:46.368Z,28.13
2022-10-05T15:21:35.560Z,33.00
2022-10-05T15:24:19.867Z,40.45
2022-10-05T15:26:52.616Z,19.02
2022-10-05T15:29:59.219Z,38.70
2022-10-05T15:32:41.721Z,84.68
2022-10-05T15:35:37.360Z,43.97
2022-10-05T15:38:37.747Z,33.83
2022-10-05T15:41:25.439Z,27.67
2022-10-05T15:44:06.211Z,37.47
2022-10-05T15:46:42.294Z,43.55
2022-10-05T15:49:41.376Z,50.58
2022-10-05T15:52:26.865Z,74.70
2022-10-05T15:54:55.500Z,43.80
2022-10-05T15:57:49.941Z,45.80
2022-10-05T16:00:30.357Z,30.45
2022-10-05T16:03:23.512Z,30.02
2022-10-05T16:06:26.725Z,22.90
2022-10-05T16:09:19.048Z,24.65
2022-10-05T16:12:10.348Z,18.58
2022-10-05T16:14:58.023Z,15.43
2022-10-05T16:17:31.121Z,17.77
2022-10-05T16:20:19.347Z,26.55
2022-10-05T16:23:12.403Z,16.88
2022-10-05T16:25:51.632Z,17.52
2022-10-05T16:28:25.447Z,18.35
2022-10-05T16:31:27.643Z,17.45
2022-10-05T16:34:18.136Z,216.52
2022-10-05T16:36:59.067Z,436.83
2022-10-05T16:42:17.519Z,76.97
2022-10-05T16:45:17.348Z,41.63
2022-10-05T16:47:59.576Z,62.97
2022-10-05T16:50:47.420Z,44.72
2022-10-05T16:53:21.667Z,53.28
2022-10-05T16:55:53.264Z,74.43
2022-10-05T16:58:42.089Z,92.38
2022-10-05T17:01:11.364Z,67.35
2022-10-05T17:04:07.464Z,84.80
2022-10-05T17:06:46.689Z,60.45
2022-10-05T17:09:41.565Z,68.43
2022-10-05T17:12:14.231Z,59.70
2022-10-05T17:15:01.050Z,230.55
2022-10-05T17:17:31.148Z,126.63
2022-10-05T17:23:29.320Z,61.70
2022-10-05T17:25:58.438Z,105.23
2022-10-05T17:28:40.164Z,78.13
2022-10-05T17:31:17.795Z,104.55
2022-10-05T17:34:00.300Z,70.97
2022-10-05T17:36:46.778Z,60.47
2022-10-05T17:39:34.910Z,64.25
2022-10-05T17:42:26.189Z,74.82
2022-10-05T17:44:56.356Z,153.48
2022-10-05T17:47:49.021Z,57.03
2022-10-05T17:50:56.015Z,57.47
2022-10-05T17:53:57.770Z,43.60
2022-10-05T18:00:01.940Z,31.83
2022-10-05T18:02:49.444Z,40.28
2022-10-05T18:05:39.219Z,96.95
2022-10-05T18:08:18.316Z,67.65
2022-10-05T18:14:21.722Z,92.07
2022-10-05T18:17:13.394Z,55.80
2022-10-05T18:19:43.016Z,36.88
2022-10-05T18:22:32.363Z,27.23
2022-10-05T18:25:20.126Z,52.03
2022-10-05T18:28:08.989Z,30.42
2022-10-05T18:31:16.547Z,27.75
2022-10-05T18:33:56.294Z,33.65
2022-10-05T18:36:48.315Z,25.67
2022-10-05T18:39:44.348Z,28.70
2022-10-05T18:42:28.864Z,27.10
2022-10-05T18:45:14.407Z,28.63
2022-10-05T18:47:46.955Z,33.72
2022-10-05T18:50:49.019Z,28.73
2022-10-05T18:53:46.355Z,27.25
2022-10-05T18:56:23.874Z,27.90
2022-10-05T18:59:10.530Z,26.65
2022-10-05T19:02:29.928Z,27.90
2022-10-05T19:05:29.214Z,36.85
2022-10-05T19:08:25.466Z,40.10
2022-10-05T19:11:05.265Z,33.10
2022-10-05T19:13:44.798Z,29.42
2022-10-05T19:16:57.353Z,33.05
2022-10-05T19:20:09.323Z,24.35
2022-10-05T19:23:27.284Z,23.98
2022-10-05T19:26:22.670Z,23.65
2022-10-05T19:29:16.421Z,25.77
2022-10-05T19:32:18.647Z,23.55
2022-10-05T19:35:23.879Z,22.25
2022-10-05T19:41:17.692Z,24.33
2022-10-05T19:44:02.391Z,28.02
2022-10-05T19:46:56.095Z,27.00
2022-10-05T19:49:57.988Z,25.08
2022-10-05T19:52:37.400Z,15.52
2022-10-05T19:55:23.112Z,15.68
2022-10-05T19:57:59.034Z,16.95
2022-10-05T20:00:36.151Z,18.17
2022-10-05T20:03:14.559Z,17.77
2022-10-05T20:05:43.439Z,19.85
2022-10-05T20:08:19.402Z,15.57
2022-10-05T20:11:17.906Z,21.27
2022-10-05T20:14:25.443Z,18.08
2022-10-05T20:17:47.166Z,19.35
2022-10-05T20:20:47.085Z,18.33
2022-10-05T20:23:30.646Z,17.63
2022-10-05T20:26:20.025Z,17.15
2022-10-05T20:28:50.249Z,14.05
2022-10-05T20:31:23.230Z,19.85
2022-10-05T20:33:54.644Z,16.50
2022-10-05T20:36:23.361Z,14.02
2022-10-05T20:38:53.559Z,12.70
2022-10-05T20:41:32.213Z,44.50
2022-10-05T20:44:17.660Z,15.27
2022-10-05T20:49:36.329Z,12.38
2022-10-05T20:52:06.088Z,13.05
2022-10-05T20:54:36.470Z,11.48
2022-10-05T20:57:12.082Z,15.43
2022-10-05T20:59:41.513Z,13.82
2022-10-05T21:02:19.925Z,16.88
2022-10-05T21:04:48.927Z,16.65
2022-10-05T21:07:22.553Z,14.38
2022-10-05T21:09:53.622Z,12.90
2022-10-05T21:12:29.514Z,14.88
2022-10-05T21:15:00.036Z,15.68
2022-10-05T21:17:41.839Z,13.25
2022-10-05T21:20:12.320Z,15.93
2022-10-05T21:22:42.613Z,13.68
2022-10-05T21:25:13.455Z,13.20
2022-10-05T21:27:50.585Z,12.00
2022-10-05T21:30:41.274Z,11.05
2022-10-05T21:33:09.991Z,14.55
2022-10-05T21:35:38.834Z,16.05
2022-10-05T21:38:07.272Z,12.65
2022-10-05T21:40:38.024Z,12.32
2022-10-05T21:43:14.308Z,12.20
2022-10-05T21:45:46.441Z,10.93
2022-10-05T21:48:16.183Z,13.13
2022-10-05T21:50:47.006Z,13.00
2022-10-05T21:53:16.785Z,13.93
2022-10-05T21:55:48.886Z,12.05
2022-10-05T21:58:20.842Z,13.90
2022-10-05T22:00:50.450Z,15.60
2022-10-05T22:03:25.500Z,11.32
2022-10-05T22:05:57.453Z,10.82
2022-10-05T22:08:35.229Z,17.52
2022-10-05T22:11:16.944Z,31.25
2022-10-05T22:13:48.287Z,20.92
2022-10-05T22:16:19.039Z,31.08
2022-10-05T22:18:49.518Z,22.73
2022-10-05T22:21:21.388Z,40.78
2022-10-05T22:23:52.225Z,14.50
2022-10-05T22:26:26.914Z,11.27
2022-10-05T22:28:59.253Z,14.48
2022-10-05T22:31:34.506Z,27.90
2022-10-05T22:34:05.829Z,11.88
2022-10-05T22:36:37.907Z,16.00
2022-10-05T22:39:08.128Z,13.80
2022-10-05T22:41:41.161Z,14.30
2022-10-05T22:44:10.926Z,14.32
2022-10-05T22:46:42.835Z,15.07
2022-10-05T22:49:13.412Z,11.93
2022-10-05T22:51:44.412Z,9.95
2022-10-05T22:54:15.002Z,11.93
2022-10-05T22:56:44.605Z,13.85
2022-10-05T22:59:13.768Z,13.38
2022-10-05T23:01:44.239Z,15.25
2022-10-05T23:04:13.188Z,31.27
2022-10-05T23:06:42.845Z,21.83
2022-10-05T23:09:12.628Z,15.00
2022-10-05T23:11:49.558Z,14.80
2022-10-05T23:14:31.643Z,11.48
2022-10-05T23:17:29.002Z,12.18
2022-10-05T23:20:06.445Z,13.18
2022-10-05T23:22:37.845Z,14.77
2022-10-05T23:25:18.142Z,14.90
2022-10-05T23:27:53.544Z,11.00
2022-10-05T23:30:25.361Z,13.15
2022-10-05T23:32:56.778Z,16.35
2022-10-05T23:35:29.582Z,13.20
2022-10-05T23:38:02.297Z,14.98
2022-10-05T23:40:44.377Z,18.50
2022-10-05T23:43:13.842Z,10.77
2022-10-05T23:45:57.658Z,15.75
2022-10-05T23:48:27.357Z,12.50
2022-10-05T23:50:57.856Z,14.07
2022-10-05T23:53:27.723Z,12.75
2022-10-05T23:55:56.676Z,11.25
2022-10-05T23:58:27.753Z,12.45
